Time;durP1;ratioP1;P1;durP2;ratioP2;P2;SDS_P1;SDS_P2;PMS_P1;PMS_P2;Temp;Humidity;BMP_temperature;BMP_pressure;BME280_temperature;BME280_humidity;BME280_pressure;Samples;Min_cycle;Max_cycle;Signal;HPM_P1;HPM_P2
2023/12/29 00:01:47;;;;;;;0.60;0.60;;;15.20;52.00;;;;;;5074246;28;20108;-69
2023/12/29 00:04:13;;;;;;;0.95;0.93;;;15.20;52.60;;;;;;5072918;28;20074;-69
2023/12/29 00:06:39;;;;;;;0.55;0.55;;;15.20;52.60;;;;;;5073956;28;20060;-70
2023/12/29 00:09:05;;;;;;;0.32;0.32;;;15.10;52.80;;;;;;5074363;28;20379;-69
2023/12/29 00:11:30;;;;;;;0.40;0.40;;;15.10;52.80;;;;;;5074490;28;20024;-69
2023/12/29 00:13:56;;;;;;;0.45;0.45;;;15.20;53.00;;;;;;5072729;28;20036;-69
2023/12/29 00:16:21;;;;;;;0.50;0.50;;;15.20;52.90;;;;;;5074403;28;20033;-69
2023/12/29 00:18:47;;;;;;;0.40;0.40;;;15.20;52.50;;;;;;5074136;28;20032;-69
2023/12/29 00:21:13;;;;;;;1.75;1.15;;;15.20;52.10;;;;;;5074256;28;20031;-69
2023/12/29 00:23:38;;;;;;;0.38;0.38;;;15.20;52.00;;;;;;5073982;28;20033;-69
2023/12/29 00:26:04;;;;;;;0.60;0.60;;;15.20;52.20;;;;;;5073986;28;20418;-69
2023/12/29 00:28:29;;;;;;;1.55;0.95;;;15.20;52.30;;;;;;5073700;28;20122;-69
2023/12/29 00:30:55;;;;;;;0.52;0.52;;;15.20;52.40;;;;;;5073828;28;20032;-69
2023/12/29 00:33:20;;;;;;;0.30;0.30;;;15.30;51.90;;;;;;5073578;28;20488;-69
2023/12/29 00:35:46;;;;;;;0.47;0.47;;;15.30;52.30;;;;;;5073866;28;20416;-69
2023/12/29 00:38:11;;;;;;;0.40;0.40;;;15.30;52.60;;;;;;5073634;28;20029;-70
2023/12/29 00:40:37;;;;;;;0.40;0.40;;;15.30;52.60;;;;;;5072454;28;20025;-69
2023/12/29 00:43:03;;;;;;;0.68;0.65;;;15.30;52.40;;;;;;5072042;28;20044;-69
2023/12/29 00:45:32;;;;;;;0.60;0.60;;;15.40;51.80;;;;;;5073606;28;20035;-69
2023/12/29 00:48:01;;;;;;;0.35;0.35;;;15.40;52.40;;;;;;5073098;28;20021;-70
2023/12/29 00:50:27;;;;;;;0.40;0.40;;;15.40;52.70;;;;;;5073516;28;20056;-69
2023/12/29 00:52:52;;;;;;;0.50;0.50;;;15.30;52.90;;;;;;5073056;28;20029;-68
2023/12/29 00:55:18;;;;;;;1.42;1.33;;;15.30;53.60;;;;;;5072984;28;20029;-68
2023/12/29 00:57:44;;;;;;;0.40;0.40;;;15.10;54.60;;;;;;5073235;28;20381;-69
2023/12/29 01:00:12;;;;;;;0.43;0.43;;;14.90;56.20;;;;;;5073477;28;20081;-69
2023/12/29 01:02:38;;;;;;;0.50;0.50;;;14.80;57.00;;;;;;5073072;28;20020;-68
2023/12/29 01:05:04;;;;;;;0.50;0.50;;;14.60;58.00;;;;;;5073005;28;20028;-68
2023/12/29 01:07:29;;;;;;;0.40;0.40;;;14.50;58.60;;;;;;5072373;28;20039;-68
2023/12/29 01:09:55;;;;;;;0.40;0.40;;;14.40;58.90;;;;;;5072045;28;20033;-69
2023/12/29 01:12:20;;;;;;;2.20;0.88;;;14.40;59.60;;;;;;5072825;28;20047;-68
2023/12/29 01:14:46;;;;;;;0.45;0.45;;;14.40;59.80;;;;;;5073060;28;20031;-68
2023/12/29 01:17:11;;;;;;;1.25;1.15;;;14.40;59.70;;;;;;5073115;28;20496;-69
2023/12/29 01:19:37;;;;;;;0.90;0.90;;;14.40;59.80;;;;;;5072755;28;20068;-69
2023/12/29 01:22:03;;;;;;;0.60;0.60;;;14.40;60.10;;;;;;5072427;28;20396;-69
2023/12/29 01:24:28;;;;;;;0.40;0.40;;;14.40;59.90;;;;;;5072511;28;20086;-68
2023/12/29 01:26:54;;;;;;;0.50;0.50;;;14.50;59.70;;;;;;5072402;28;20395;-69
2023/12/29 01:29:19;;;;;;;0.85;0.85;;;14.50;59.60;;;;;;5072456;28;20028;-69
2023/12/29 01:31:45;;;;;;;0.50;0.50;;;14.40;59.70;;;;;;5072741;28;20043;-69
2023/12/29 01:34:11;;;;;;;0.40;0.40;;;14.40;60.10;;;;;;5072388;28;20039;-69
2023/12/29 01:36:36;;;;;;;0.40;0.40;;;14.40;60.30;;;;;;5071508;28;20368;-69
2023/12/29 01:39:02;;;;;;;0.50;0.50;;;14.40;60.30;;;;;;5072311;28;20056;-69
2023/12/29 01:41:29;;;;;;;0.50;0.50;;;14.40;60.10;;;;;;5072691;28;20020;-68
2023/12/29 01:43:57;;;;;;;0.50;0.50;;;14.50;59.50;;;;;;5070945;28;20113;-68
2023/12/29 01:46:25;;;;;;;0.50;0.50;;;14.50;59.50;;;;;;5072574;28;20039;-69
2023/12/29 01:48:51;;;;;;;0.40;0.40;;;14.60;59.20;;;;;;5072377;28;20032;-69
2023/12/29 01:51:18;;;;;;;0.45;0.45;;;14.60;59.20;;;;;;5070894;28;20115;-69
2023/12/29 01:53:44;;;;;;;0.43;0.43;;;14.70;59.10;;;;;;5072175;28;20483;-69
2023/12/29 01:56:10;;;;;;;0.55;0.55;;;14.70;58.80;;;;;;5071691;28;20032;-68
2023/12/29 01:58:36;;;;;;;0.40;0.40;;;14.80;58.60;;;;;;5072078;28;20507;-69
2023/12/29 02:01:03;;;;;;;0.60;0.60;;;14.80;58.50;;;;;;5072226;28;20040;-69
2023/12/29 02:03:28;;;;;;;0.80;0.70;;;14.80;58.10;;;;;;5071935;28;20115;-69
2023/12/29 02:05:55;;;;;;;0.50;0.50;;;14.90;57.80;;;;;;5072291;28;20115;-69
2023/12/29 02:08:22;;;;;;;0.75;0.75;;;15.00;57.20;;;;;;5071896;28;20066;-69
2023/12/29 02:10:48;;;;;;;0.40;0.40;;;15.00;57.20;;;;;;5072124;28;20032;-69
2023/12/29 02:13:14;;;;;;;0.47;0.47;;;15.10;57.00;;;;;;5070574;28;20024;-68
2023/12/29 02:15:40;;;;;;;0.50;0.50;;;15.00;57.30;;;;;;5072031;28;20037;-69
2023/12/29 02:18:09;;;;;;;1.38;1.27;;;15.10;57.10;;;;;;5071490;28;20020;-69
2023/12/29 02:20:35;;;;;;;0.40;0.40;;;15.10;57.00;;;;;;5071708;28;20029;-69
2023/12/29 02:23:02;;;;;;;0.50;0.50;;;15.10;56.50;;;;;;5071658;28;20025;-68
2023/12/29 02:25:28;;;;;;;0.50;0.50;;;15.10;57.20;;;;;;5072149;28;20422;-69
2023/12/29 02:27:57;;;;;;;0.52;0.52;;;15.20;56.80;;;;;;5071747;28;20036;-68
2023/12/29 02:30:41;;;;;;;0.40;0.40;;;15.20;56.50;;;;;;5071809;28;20483;-68
2023/12/29 02:33:14;;;;;;;0.40;0.40;;;15.20;56.40;;;;;;5071461;28;20028;-69
2023/12/29 02:35:43;;;;;;;0.40;0.40;;;15.20;55.70;;;;;;5071860;28;20025;-69
2023/12/29 02:38:09;;;;;;;1.15;0.95;;;15.20;55.60;;;;;;5071353;28;20077;-68
2023/12/29 02:40:35;;;;;;;0.38;0.38;;;15.20;55.50;;;;;;5071903;28;20117;-68
2023/12/29 02:43:00;;;;;;;0.50;0.50;;;15.20;55.40;;;;;;5071499;28;20037;-69
2023/12/29 02:45:27;;;;;;;1.13;1.02;;;15.30;55.50;;;;;;5071611;28;20033;-69
2023/12/29 02:47:53;;;;;;;0.40;0.40;;;15.20;56.20;;;;;;5071297;28;20047;-70
2023/12/29 02:50:19;;;;;;;0.40;0.40;;;15.00;56.90;;;;;;5071602;28;20062;-69
2023/12/29 02:52:44;;;;;;;0.30;0.30;;;14.80;58.40;;;;;;5071547;28;20396;-71
2023/12/29 02:55:10;;;;;;;0.50;0.50;;;14.60;60.10;;;;;;5071590;28;20032;-72
2023/12/29 02:57:35;;;;;;;0.40;0.40;;;14.40;61.70;;;;;;5071817;28;20036;-72
2023/12/29 03:00:01;;;;;;;0.90;0.90;;;14.20;63.00;;;;;;5070288;28;20040;-71
2023/12/29 03:02:27;;;;;;;0.50;0.50;;;14.00;64.00;;;;;;5069923;28;20517;-70
2023/12/29 03:04:53;;;;;;;0.40;0.40;;;13.80;64.70;;;;;;5071305;28;20036;-70
2023/12/29 03:07:18;;;;;;;0.50;0.50;;;13.80;65.30;;;;;;5071019;28;20085;-70
2023/12/29 03:09:44;;;;;;;0.50;0.50;;;13.60;65.80;;;;;;5071200;28;20384;-70
2023/12/29 03:12:09;;;;;;;0.50;0.50;;;13.50;66.40;;;;;;5071162;28;20438;-70
2023/12/29 03:14:35;;;;;;;0.50;0.50;;;13.50;66.70;;;;;;5071324;28;20077;-69
2023/12/29 03:17:00;;;;;;;0.50;0.50;;;13.40;67.10;;;;;;5071007;28;20059;-69
2023/12/29 03:19:27;;;;;;;0.50;0.50;;;13.40;67.30;;;;;;5071215;28;20039;-70
2023/12/29 03:21:53;;;;;;;0.50;0.50;;;13.30;67.60;;;;;;5071562;28;20028;-70
2023/12/29 03:24:19;;;;;;;0.65;0.65;;;13.30;67.70;;;;;;5071131;28;20468;-70
2023/12/29 03:26:45;;;;;;;0.50;0.50;;;13.30;68.00;;;;;;5071151;28;20029;-70
2023/12/29 03:29:11;;;;;;;0.60;0.60;;;13.30;68.20;;;;;;5071243;28;20027;-70
2023/12/29 03:31:36;;;;;;;0.40;0.40;;;13.30;68.10;;;;;;5072138;28;20040;-70
2023/12/29 03:34:02;;;;;;;0.50;0.50;;;13.30;68.20;;;;;;5074890;28;20520;-70
2023/12/29 03:36:27;;;;;;;0.50;0.50;;;13.30;68.30;;;;;;5075384;28;20448;-70
2023/12/29 03:38:53;;;;;;;0.43;0.43;;;13.30;68.40;;;;;;5075059;28;20064;-70
2023/12/29 03:41:18;;;;;;;0.40;0.40;;;13.30;68.40;;;;;;5075310;28;20060;-70
2023/12/29 03:43:44;;;;;;;0.95;0.82;;;13.30;68.60;;;;;;5074808;28;20074;-70
2023/12/29 03:46:20;;;;;;;0.50;0.50;;;13.30;68.70;;;;;;5075302;28;20078;-70
2023/12/29 03:48:46;;;;;;;0.50;0.50;;;13.30;68.80;;;;;;5074883;28;20032;-70
2023/12/29 03:51:12;;;;;;;0.50;0.50;;;13.30;68.90;;;;;;5075176;28;20021;-70
2023/12/29 03:53:38;;;;;;;0.75;0.75;;;13.30;68.80;;;;;;5074809;28;20079;-71
2023/12/29 03:56:16;;;;;;;0.40;0.40;;;13.30;68.50;;;;;;5073001;28;20040;-71
2023/12/29 03:58:43;;;;;;;0.40;0.40;;;13.30;68.60;;;;;;5074623;28;20107;-71
2023/12/29 04:01:16;;;;;;;0.50;0.50;;;13.30;68.70;;;;;;5074738;28;20479;-70
2023/12/29 04:03:43;;;;;;;1.55;1.13;;;13.30;68.80;;;;;;5074350;28;20024;-70
2023/12/29 04:06:09;;;;;;;0.80;0.80;;;13.20;68.90;;;;;;5074106;28;20067;-70
2023/12/29 04:08:35;;;;;;;0.40;0.40;;;13.30;69.20;;;;;;5074221;28;20143;-69
2023/12/29 04:11:01;;;;;;;0.93;0.93;;;13.30;69.30;;;;;;5074504;28;20460;-70
2023/12/29 04:13:27;;;;;;;0.50;0.50;;;13.30;69.30;;;;;;5072851;28;20032;-70
2023/12/29 04:15:52;;;;;;;0.40;0.40;;;13.40;69.30;;;;;;5072797;28;20031;-70
2023/12/29 04:18:20;;;;;;;0.50;0.50;;;13.40;69.10;;;;;;5074406;28;20450;-71
2023/12/29 04:20:46;;;;;;;0.50;0.50;;;13.30;69.30;;;;;;5074374;28;20039;-71
2023/12/29 04:23:12;;;;;;;0.60;0.60;;;13.30;69.30;;;;;;5074129;28;20029;-72
2023/12/29 04:25:37;;;;;;;0.40;0.40;;;13.30;69.30;;;;;;5074405;28;20044;-72
2023/12/29 04:28:03;;;;;;;0.40;0.40;;;13.30;69.40;;;;;;5072920;28;20501;-72
2023/12/29 04:30:29;;;;;;;0.50;0.50;;;13.20;69.70;;;;;;5074479;28;20094;-73
2023/12/29 04:32:54;;;;;;;0.40;0.40;;;13.20;69.70;;;;;;5074578;28;20036;-71
2023/12/29 04:35:20;;;;;;;0.40;0.40;;;13.20;69.80;;;;;;5074368;28;20036;-72
2023/12/29 04:37:45;;;;;;;0.60;0.60;;;13.20;69.90;;;;;;5074047;28;20036;-72
2023/12/29 04:40:12;;;;;;;0.50;0.50;;;13.20;70.00;;;;;;5073886;28;20020;-72
2023/12/29 04:42:37;;;;;;;0.50;0.50;;;13.20;70.00;;;;;;5073464;28;20028;-72
2023/12/29 04:45:04;;;;;;;0.40;0.40;;;13.20;70.00;;;;;;5073770;28;20028;-72
2023/12/29 04:47:30;;;;;;;0.50;0.50;;;13.20;70.10;;;;;;5073391;28;20133;-72
2023/12/29 04:49:56;;;;;;;0.40;0.40;;;13.10;70.10;;;;;;5073979;28;20112;-72
2023/12/29 04:52:21;;;;;;;0.50;0.50;;;13.10;70.20;;;;;;5073587;28;20044;-72
2023/12/29 04:54:47;;;;;;;0.50;0.50;;;13.20;70.10;;;;;;5073601;28;20146;-72
2023/12/29 04:57:12;;;;;;;0.38;0.38;;;13.10;70.30;;;;;;5073144;28;20376;-72
2023/12/29 04:59:38;;;;;;;0.52;0.52;;;13.20;70.30;;;;;;5073266;28;20476;-68
2023/12/29 05:02:03;;;;;;;0.40;0.40;;;13.20;70.40;;;;;;5073025;28;20606;-69
2023/12/29 05:04:29;;;;;;;0.57;0.52;;;13.20;70.60;;;;;;5073327;28;20052;-69
2023/12/29 05:06:54;;;;;;;0.50;0.50;;;13.20;70.60;;;;;;5072935;28;20043;-68
2023/12/29 05:09:20;;;;;;;0.50;0.50;;;13.30;70.60;;;;;;5072872;28;20025;-68
2023/12/29 05:11:46;;;;;;;0.45;0.45;;;13.30;70.50;;;;;;5073139;28;20028;-68
2023/12/29 05:14:11;;;;;;;0.60;0.60;;;13.40;70.50;;;;;;5072764;28;20487;-68
2023/12/29 05:16:37;;;;;;;0.50;0.50;;;13.40;70.50;;;;;;5072829;28;20071;-68
2023/12/29 05:19:02;;;;;;;0.65;0.65;;;13.40;70.40;;;;;;5072939;28;20021;-69
2023/12/29 05:21:28;;;;;;;0.40;0.40;;;13.50;70.40;;;;;;5073126;28;20074;-68
2023/12/29 05:23:53;;;;;;;0.40;0.40;;;13.50;70.40;;;;;;5072610;28;20396;-68
2023/12/29 05:26:19;;;;;;;0.30;0.30;;;13.50;70.20;;;;;;5072873;28;20029;-68
2023/12/29 05:28:44;;;;;;;0.50;0.50;;;13.50;70.00;;;;;;5072576;28;20111;-68
2023/12/29 05:31:10;;;;;;;0.50;0.50;;;13.60;70.00;;;;;;5072957;28;20077;-68
2023/12/29 05:33:36;;;;;;;0.43;0.43;;;13.60;70.00;;;;;;5072646;28;20036;-68
2023/12/29 05:36:10;;;;;;;1.40;1.30;;;13.60;70.10;;;;;;5071583;28;20195;-69
2023/12/29 05:38:39;;;;;;;0.50;0.50;;;13.70;70.00;;;;;;5072755;28;20027;-68
2023/12/29 05:41:06;;;;;;;0.43;0.43;;;13.70;70.00;;;;;;5072916;28;20039;-68
2023/12/29 05:43:33;;;;;;;0.50;0.50;;;13.70;70.00;;;;;;5072255;28;20024;-68
2023/12/29 05:45:59;;;;;;;0.40;0.40;;;13.70;69.90;;;;;;5072539;28;20479;-68
2023/12/29 05:48:25;;;;;;;0.75;0.70;;;13.80;69.80;;;;;;5072111;28;20066;-68
2023/12/29 05:50:51;;;;;;;0.40;0.40;;;13.80;69.80;;;;;;5072481;28;20146;-69
2023/12/29 05:53:17;;;;;;;0.50;0.50;;;13.80;69.60;;;;;;5072052;28;20384;-68
2023/12/29 05:55:44;;;;;;;0.50;0.50;;;13.80;69.50;;;;;;5071425;28;20036;-68
2023/12/29 05:58:09;;;;;;;0.50;0.50;;;13.80;69.50;;;;;;5072054;28;20158;-68
2023/12/29 06:00:36;;;;;;;0.85;0.85;;;13.90;69.50;;;;;;5072442;28;20090;-67
2023/12/29 06:03:04;;;;;;;0.50;0.50;;;13.90;69.50;;;;;;5071927;28;20372;-68
2023/12/29 06:05:29;;;;;;;0.50;0.50;;;13.90;69.50;;;;;;5072109;28;20029;-68
2023/12/29 06:07:55;;;;;;;0.47;0.47;;;14.00;69.30;;;;;;5070461;28;20028;-69
2023/12/29 06:10:20;;;;;;;0.70;0.70;;;14.00;69.40;;;;;;5072146;28;20033;-68
2023/12/29 06:12:46;;;;;;;0.43;0.43;;;14.00;69.40;;;;;;5072088;28;20116;-68
2023/12/29 06:15:13;;;;;;;0.40;0.40;;;14.00;69.30;;;;;;5071895;28;20033;-70
2023/12/29 06:17:40;;;;;;;0.60;0.60;;;14.00;69.10;;;;;;5071972;28;20418;-68
2023/12/29 06:20:07;;;;;;;0.60;0.60;;;14.00;69.10;;;;;;5071842;28;20119;-68
2023/12/29 06:22:32;;;;;;;0.40;0.40;;;14.00;69.00;;;;;;5071659;28;20032;-68
2023/12/29 06:24:58;;;;;;;0.40;0.40;;;14.00;69.10;;;;;;5071819;28;20044;-68
2023/12/29 06:27:25;;;;;;;0.40;0.40;;;14.00;69.10;;;;;;5070050;28;20074;-67
2023/12/29 06:29:50;;;;;;;0.40;0.40;;;14.00;69.00;;;;;;5071743;28;20028;-66
2023/12/29 06:32:16;;;;;;;0.40;0.40;;;14.00;69.00;;;;;;5071625;28;20024;-67
2023/12/29 06:34:41;;;;;;;0.30;0.30;;;14.00;68.90;;;;;;5071741;28;20060;-67
2023/12/29 06:37:07;;;;;;;0.50;0.50;;;14.00;68.90;;;;;;5071520;28;20063;-67
2023/12/29 06:39:32;;;;;;;0.50;0.50;;;14.10;68.70;;;;;;5071460;28;20040;-68
2023/12/29 06:41:58;;;;;;;0.47;0.47;;;14.00;68.70;;;;;;5070179;28;20020;-67
2023/12/29 06:44:23;;;;;;;0.52;0.52;;;14.10;68.70;;;;;;5071586;28;20150;-67
2023/12/29 06:46:49;;;;;;;1.10;1.10;;;14.00;68.60;;;;;;5071199;28;20063;-67
2023/12/29 06:49:14;;;;;;;0.75;0.68;;;14.10;68.40;;;;;;5070305;28;20024;-68
2023/12/29 06:51:40;;;;;;;0.65;0.65;;;14.00;68.70;;;;;;5071846;28;20020;-68
2023/12/29 06:54:06;;;;;;;0.60;0.60;;;14.10;68.70;;;;;;5071284;28;20025;-69
2023/12/29 06:56:32;;;;;;;0.50;0.50;;;14.10;68.60;;;;;;5070825;28;20044;-66
2023/12/29 06:58:58;;;;;;;0.50;0.50;;;14.10;68.50;;;;;;5071468;28;20028;-68
2023/12/29 07:01:24;;;;;;;0.60;0.60;;;14.20;68.50;;;;;;5071524;28;20028;-68
2023/12/29 07:03:50;;;;;;;0.40;0.40;;;14.10;68.30;;;;;;5071233;28;20115;-69
2023/12/29 07:06:15;;;;;;;0.80;0.80;;;14.20;68.30;;;;;;5073584;28;20103;-70
2023/12/29 07:08:41;;;;;;;0.40;0.40;;;14.20;68.40;;;;;;5075284;28;20032;-68
2023/12/29 07:11:11;;;;;;;0.40;0.40;;;14.20;68.20;;;;;;5075541;28;20109;-67
2023/12/29 07:13:37;;;;;;;0.50;0.50;;;14.20;68.40;;;;;;5075253;28;20024;-67
2023/12/29 07:16:02;;;;;;;0.50;0.50;;;14.20;68.30;;;;;;5075482;28;20513;-67
2023/12/29 07:18:28;;;;;;;0.38;0.38;;;14.30;68.20;;;;;;5073670;28;20074;-68
2023/12/29 07:20:53;;;;;;;0.40;0.40;;;14.30;68.10;;;;;;5075540;28;20460;-71
2023/12/29 07:23:19;;;;;;;0.40;0.40;;;14.20;68.40;;;;;;5075102;28;20476;-70
2023/12/29 07:25:45;;;;;;;0.40;0.40;;;14.30;68.20;;;;;;5075689;28;20044;-71
2023/12/29 07:28:10;;;;;;;0.80;0.80;;;14.30;68.40;;;;;;5074854;28;20040;-71
2023/12/29 07:30:36;;;;;;;0.60;0.60;;;14.30;68.30;;;;;;5075123;28;20104;-70
2023/12/29 07:33:02;;;;;;;0.40;0.40;;;14.30;68.30;;;;;;5073622;28;20133;-71
2023/12/29 07:35:28;;;;;;;0.50;0.50;;;14.30;68.60;;;;;;5074998;28;20028;-71
2023/12/29 07:37:53;;;;;;;0.40;0.40;;;14.30;68.40;;;;;;5074597;28;20033;-70
2023/12/29 07:40:19;;;;;;;0.70;0.70;;;14.30;68.40;;;;;;5075179;28;20029;-71
2023/12/29 07:42:46;;;;;;;0.40;0.40;;;14.30;68.20;;;;;;5073302;28;20181;-71
2023/12/29 07:45:12;;;;;;;0.50;0.50;;;14.30;68.30;;;;;;5074724;28;20074;-70
2023/12/29 07:47:37;;;;;;;0.50;0.50;;;14.30;68.30;;;;;;5074439;28;20044;-70
2023/12/29 07:50:04;;;;;;;0.40;0.40;;;14.30;68.20;;;;;;5074650;28;20040;-70
2023/12/29 07:52:30;;;;;;;0.90;0.90;;;14.30;68.10;;;;;;5074441;28;20380;-71
2023/12/29 07:54:55;;;;;;;0.47;0.47;;;14.30;68.20;;;;;;5074344;28;20028;-71
2023/12/29 07:57:21;;;;;;;0.40;0.40;;;14.30;68.20;;;;;;5074950;28;20384;-71
2023/12/29 07:59:47;;;;;;;0.50;0.50;;;14.30;68.20;;;;;;5074711;28;20430;-70
2023/12/29 08:02:12;;;;;;;0.60;0.60;;;14.30;68.20;;;;;;5074505;28;20544;-71
2023/12/29 08:04:38;;;;;;;0.40;0.40;;;14.30;68.30;;;;;;5074440;28;20059;-71
2023/12/29 08:07:04;;;;;;;0.50;0.50;;;14.40;68.30;;;;;;5074107;28;20017;-71
2023/12/29 08:09:30;;;;;;;0.43;0.43;;;14.40;68.10;;;;;;5074265;28;20039;-71
2023/12/29 08:11:55;;;;;;;0.73;0.73;;;14.30;67.80;;;;;;5074057;28;20021;-71
2023/12/29 08:14:21;;;;;;;0.52;0.52;;;14.40;67.90;;;;;;5074391;28;20073;-71
2023/12/29 08:16:47;;;;;;;0.50;0.50;;;14.30;68.10;;;;;;5074060;28;20537;-70
2023/12/29 08:19:14;;;;;;;0.95;0.95;;;14.40;68.30;;;;;;5073617;28;20028;-71
2023/12/29 08:21:40;;;;;;;0.50;0.50;;;14.40;68.30;;;;;;5074298;28;20490;-70
2023/12/29 08:24:05;;;;;;;0.40;0.40;;;14.40;68.20;;;;;;5074102;28;20025;-71
2023/12/29 08:26:31;;;;;;;0.50;0.50;;;14.40;68.10;;;;;;5073809;28;20476;-70
2023/12/29 08:28:56;;;;;;;0.50;0.50;;;14.40;68.30;;;;;;5074250;28;20016;-70
2023/12/29 08:31:23;;;;;;;0.40;0.40;;;14.40;68.00;;;;;;5072914;28;20455;-70
2023/12/29 08:33:48;;;;;;;0.43;0.43;;;14.40;68.00;;;;;;5073757;28;20558;-71
2023/12/29 08:36:17;;;;;;;0.57;0.57;;;14.40;67.90;;;;;;5074332;28;20056;-71
2023/12/29 08:38:43;;;;;;;0.47;0.47;;;14.40;67.60;;;;;;5073566;28;20016;-71
2023/12/29 08:41:08;;;;;;;0.38;0.38;;;14.40;67.50;;;;;;5074134;28;20031;-71
2023/12/29 08:43:36;;;;;;;0.60;0.60;;;14.30;67.50;;;;;;5073537;28;20032;-70
2023/12/29 08:46:01;;;;;;;0.70;0.70;;;14.20;67.50;;;;;;5073850;28;20031;-70
2023/12/29 08:48:27;;;;;;;0.50;0.50;;;14.00;67.70;;;;;;5073763;28;20028;-71
2023/12/29 08:50:52;;;;;;;0.43;0.43;;;13.90;67.90;;;;;;5073960;28;20451;-70
2023/12/29 08:53:18;;;;;;;0.35;0.35;;;13.80;68.10;;;;;;5073480;28;20030;-71
2023/12/29 08:55:44;;;;;;;0.45;0.45;;;13.70;68.60;;;;;;5073366;28;20036;-71
2023/12/29 08:58:09;;;;;;;0.50;0.50;;;13.60;68.80;;;;;;5073152;28;20041;-71
2023/12/29 09:00:35;;;;;;;0.40;0.40;;;13.50;69.10;;;;;;5073630;28;20132;-71
2023/12/29 09:03:01;;;;;;;0.47;0.47;;;13.40;69.50;;;;;;5073561;28;20064;-72
2023/12/29 09:05:26;;;;;;;0.43;0.43;;;13.40;70.00;;;;;;5073548;28;20042;-72
2023/12/29 09:07:52;;;;;;;0.50;0.50;;;13.40;70.30;;;;;;5072960;28;20495;-72
2023/12/29 09:10:18;;;;;;;0.40;0.40;;;13.40;70.30;;;;;;5073205;28;20041;-71
2023/12/29 09:12:43;;;;;;;0.40;0.40;;;13.30;70.60;;;;;;5072816;28;20369;-72
2023/12/29 09:15:09;;;;;;;0.40;0.40;;;13.30;70.80;;;;;;5073147;28;20029;-72
2023/12/29 09:17:35;;;;;;;0.60;0.60;;;13.30;71.10;;;;;;5072983;28;20044;-71
2023/12/29 09:20:01;;;;;;;0.50;0.50;;;13.30;71.00;;;;;;5073355;28;20032;-71
2023/12/29 09:22:26;;;;;;;0.45;0.45;;;13.30;71.10;;;;;;5054885;28;20039;-72
2023/12/29 09:24:53;;;;;;;0.40;0.40;;;13.30;71.20;;;;;;5072454;28;20551;-71
2023/12/29 09:27:19;;;;;;;0.40;0.40;;;13.30;71.20;;;;;;5072055;28;20042;-70
2023/12/29 09:29:44;;;;;;;0.50;0.50;;;13.30;71.40;;;;;;5071759;28;20193;-70
2023/12/29 09:32:10;;;;;;;0.40;0.40;;;13.30;71.40;;;;;;5072495;28;20486;-70
2023/12/29 09:34:35;;;;;;;0.45;0.45;;;13.30;71.50;;;;;;5072657;28;20081;-70
2023/12/29 09:37:01;;;;;;;0.50;0.50;;;13.30;71.70;;;;;;5072186;28;20036;-70
2023/12/29 09:39:26;;;;;;;0.40;0.40;;;13.30;71.80;;;;;;5072412;28;20040;-68
2023/12/29 09:41:54;;;;;;;0.60;0.60;;;13.30;71.90;;;;;;5072264;28;20036;-68
2023/12/29 09:44:21;;;;;;;0.50;0.50;;;13.30;71.90;;;;;;5070859;28;20073;-68
2023/12/29 09:46:53;;;;;;;0.43;0.43;;;13.30;71.90;;;;;;5072015;28;20028;-68
2023/12/29 09:49:19;;;;;;;0.55;0.55;;;13.30;72.10;;;;;;5072058;28;20028;-68
2023/12/29 09:51:45;;;;;;;0.40;0.40;;;13.40;72.10;;;;;;5071688;28;20060;-68
2023/12/29 09:54:11;;;;;;;0.50;0.50;;;13.40;72.20;;;;;;5071716;28;20056;-68
2023/12/29 09:56:37;;;;;;;0.50;0.50;;;13.40;72.20;;;;;;5071628;28;20033;-68
2023/12/29 09:59:04;;;;;;;0.50;0.50;;;13.40;72.20;;;;;;5071660;28;20051;-69
2023/12/29 10:01:32;;;;;;;0.40;0.40;;;13.40;72.30;;;;;;5067322;28;20102;-69
2023/12/29 10:03:57;;;;;;;0.40;0.40;;;13.50;72.40;;;;;;5071886;28;20044;-69
2023/12/29 10:06:26;;;;;;;0.65;0.65;;;13.50;72.20;;;;;;5071634;28;20082;-68
2023/12/29 10:08:54;;;;;;;0.50;0.50;;;13.50;72.20;;;;;;5071492;28;20016;-69
2023/12/29 10:11:22;;;;;;;0.40;0.40;;;13.50;72.20;;;;;;5071833;28;20032;-69
2023/12/29 10:13:51;;;;;;;0.40;0.40;;;13.50;72.20;;;;;;5052541;28;20064;-69
2023/12/29 10:16:38;;;;;;;0.40;0.40;;;13.50;72.30;;;;;;5070473;28;20032;-70
2023/12/29 10:19:11;;;;;;;0.40;0.40;;;13.60;72.50;;;;;;5071759;28;20074;-70
2023/12/29 10:22:10;;;;;;;0.38;0.38;;;13.60;72.40;;;;;;5071612;28;20499;-69
2023/12/29 10:24:36;;;;;;;0.40;0.40;;;13.60;72.40;;;;;;5071416;28;20079;-69
2023/12/29 10:27:02;;;;;;;3.00;0.88;;;13.70;72.30;;;;;;5071495;28;20043;-69
2023/12/29 10:29:27;;;;;;;0.52;0.52;;;13.70;72.30;;;;;;5071547;28;20033;-69
2023/12/29 10:31:53;;;;;;;0.40;0.40;;;13.70;72.30;;;;;;5071455;28;20074;-69
2023/12/29 10:34:20;;;;;;;0.40;0.40;;;13.80;72.40;;;;;;5071865;28;20020;-69
2023/12/29 10:36:52;;;;;;;0.40;0.40;;;13.80;72.20;;;;;;5071553;28;20036;-69
2023/12/29 10:39:17;;;;;;;0.40;0.40;;;13.90;72.40;;;;;;5071457;28;20032;-69
2023/12/29 10:41:43;;;;;;;0.60;0.60;;;13.90;72.40;;;;;;5052999;28;20476;-68
2023/12/29 10:44:08;;;;;;;0.45;0.45;;;14.00;72.50;;;;;;5071283;28;20060;-68
2023/12/29 10:46:34;;;;;;;0.50;0.50;;;14.10;72.50;;;;;;5071156;28;20482;-68
2023/12/29 10:49:10;;;;;;;0.45;0.45;;;14.20;72.30;;;;;;5071263;28;20025;-69
2023/12/29 10:51:39;;;;;;;0.40;0.40;;;14.30;72.40;;;;;;5071280;28;20043;-69
2023/12/29 10:54:06;;;;;;;0.47;0.47;;;14.40;72.20;;;;;;5071325;28;20056;-69
2023/12/29 10:56:34;;;;;;;0.50;0.50;;;14.40;72.10;;;;;;5071053;28;20029;-69
2023/12/29 10:59:05;;;;;;;0.50;0.50;;;14.50;72.00;;;;;;5071301;28;20021;-68
2023/12/29 11:01:33;;;;;;;0.47;0.47;;;14.60;72.00;;;;;;5071763;28;20039;-68
2023/12/29 11:04:05;;;;;;;0.40;0.40;;;14.60;71.70;;;;;;5071167;28;20506;-68
2023/12/29 11:06:46;;;;;;;0.47;0.47;;;14.70;71.60;;;;;;5071095;28;20033;-68
2023/12/29 11:09:12;;;;;;;0.50;0.50;;;14.70;71.60;;;;;;5071191;28;20032;-68
2023/12/29 11:11:37;;;;;;;0.47;0.47;;;14.70;71.40;;;;;;5071023;28;20024;-68
2023/12/29 11:14:03;;;;;;;0.50;0.50;;;14.80;71.30;;;;;;5070945;28;20035;-68
2023/12/29 11:16:31;;;;;;;0.40;0.40;;;14.80;71.30;;;;;;5071394;28;20369;-68
2023/12/29 11:18:58;;;;;;;0.50;0.50;;;14.90;71.30;;;;;;5071137;28;20574;-68
2023/12/29 11:21:26;;;;;;;0.50;0.50;;;14.90;71.40;;;;;;5071546;28;20110;-68
2023/12/29 11:23:52;;;;;;;0.60;0.60;;;14.90;71.20;;;;;;5070992;28;20142;-69
2023/12/29 11:26:18;;;;;;;0.50;0.50;;;14.90;71.10;;;;;;5071313;28;20074;-68
2023/12/29 11:28:46;;;;;;;0.40;0.40;;;15.00;71.00;;;;;;5053257;28;20472;-68
2023/12/29 11:31:12;;;;;;;0.50;0.50;;;14.90;71.20;;;;;;5071292;28;20107;-68
2023/12/29 11:33:45;;;;;;;0.50;0.50;;;14.90;71.00;;;;;;5070802;28;20099;-68
2023/12/29 11:36:23;;;;;;;0.40;0.40;;;15.00;71.00;;;;;;5071139;28;20025;-68
2023/12/29 11:39:00;;;;;;;0.50;0.50;;;14.90;70.90;;;;;;5070510;28;20016;-69
2023/12/29 11:41:30;;;;;;;0.50;0.50;;;14.80;71.00;;;;;;5071199;28;20043;-68
2023/12/29 11:44:00;;;;;;;0.50;0.50;;;14.80;71.00;;;;;;5070958;28;20108;-68
2023/12/29 11:46:34;;;;;;;0.45;0.45;;;14.70;71.00;;;;;;5071108;28;20037;-69
2023/12/29 11:49:04;;;;;;;0.80;0.80;;;14.60;70.70;;;;;;5070888;28;20017;-69
2023/12/29 11:51:45;;;;;;;0.50;0.50;;;14.50;71.30;;;;;;5071300;28;20487;-68
2023/12/29 11:54:20;;;;;;;0.45;0.45;;;14.40;71.60;;;;;;5073611;28;20074;-68
2023/12/29 11:56:46;;;;;;;0.47;0.47;;;14.40;71.60;;;;;;5074105;28;20066;-69
2023/12/29 11:59:13;;;;;;;0.50;0.50;;;14.40;71.80;;;;;;5074333;28;20051;-71
2023/12/29 12:01:39;;;;;;;0.50;0.50;;;14.30;72.00;;;;;;5074280;28;20025;-71
2023/12/29 12:04:24;;;;;;;1.08;0.98;;;14.30;72.10;;;;;;5074339;28;20029;-71
2023/12/29 12:06:50;;;;;;;0.50;0.50;;;14.40;72.00;;;;;;5073949;28;20504;-70
2023/12/29 12:09:24;;;;;;;0.40;0.40;;;14.40;72.10;;;;;;5074178;28;20059;-70
2023/12/29 12:11:50;;;;;;;0.50;0.50;;;14.40;72.20;;;;;;5073723;28;20028;-69
2023/12/29 12:14:53;;;;;;;0.40;0.40;;;14.50;72.10;;;;;;5073645;28;20021;-70
2023/12/29 12:17:32;;;;;;;0.40;0.40;;;14.40;72.20;;;;;;5072594;28;20016;-70
2023/12/29 12:19:59;;;;;;;0.50;0.50;;;14.50;72.40;;;;;;5072366;28;20054;-70
2023/12/29 12:22:25;;;;;;;0.52;0.52;;;14.50;72.40;;;;;;5073788;28;20032;-70
2023/12/29 12:25:00;;;;;;;0.50;0.50;;;14.60;72.60;;;;;;5073809;28;20039;-72
2023/12/29 12:27:27;;;;;;;0.40;0.40;;;14.70;72.60;;;;;;5073838;28;20181;-70
2023/12/29 12:29:58;;;;;;;0.50;0.50;;;14.70;72.30;;;;;;5073891;28;20032;-70
2023/12/29 12:32:28;;;;;;;0.40;0.40;;;14.80;72.30;;;;;;5073743;28;20066;-70
2023/12/29 12:34:54;;;;;;;0.45;0.45;;;14.80;72.30;;;;;;5073780;28;20048;-70
2023/12/29 12:37:24;;;;;;;0.40;0.40;;;14.80;72.10;;;;;;5073533;28;20507;-70
2023/12/29 12:39:50;;;;;;;0.40;0.40;;;14.80;72.10;;;;;;5073722;28;20480;-70
2023/12/29 12:42:17;;;;;;;0.30;0.30;;;14.80;71.90;;;;;;5073372;28;20028;-70
2023/12/29 12:45:11;;;;;;;0.40;0.40;;;14.80;72.10;;;;;;5073544;28;20490;-70
2023/12/29 12:47:52;;;;;;;0.50;0.50;;;14.90;72.00;;;;;;5073638;28;20443;-70